Time;durP1;ratioP1;P1;durP2;ratioP2;P2;SDS_P1;SDS_P2;PMS_P1;PMS_P2;Temp;Humidity;BMP_temperature;BMP_pressure;BME280_temperature;BME280_humidity;BME280_pressure;Samples;Min_cycle;Max_cycle;Signal;HPM_P1;HPM_P2
2024/04/10 00:01:58;;;;;;;;;;;;;;;14.53;40.18;99642.66;5382223;26;20002;-79
2024/04/10 00:04:23;;;;;;;;;;;;;;;14.48;41.57;99638.97;5382440;26;19937;-79
2024/04/10 00:06:48;;;;;;;;;;;;;;;14.45;40.70;99636.72;5410322;26;19996;-79
2024/04/10 00:09:13;;;;;;;;;;;;;;;14.39;40.57;99638.31;5382747;26;19937;-79
2024/04/10 00:11:39;;;;;;;;;;;;;;;14.30;40.28;99640.31;5410056;26;19937;-79
2024/04/10 00:14:04;;;;;;;;;;;;;;;14.24;41.22;99635.81;5382284;26;19937;-79
2024/04/10 00:16:29;;;;;;;;;;;;;;;14.13;41.27;99630.25;5382557;26;19937;-79
2024/04/10 00:18:54;;;;;;;;;;;;;;;14.04;41.29;99629.56;5382347;26;19966;-79
2024/04/10 00:21:20;;;;;;;;;;;;;;;13.98;40.63;99630.38;5382695;26;20365;-79
2024/04/10 00:23:45;;;;;;;;;;;;;;;13.89;41.94;99635.03;5382467;26;19929;-79
2024/04/10 00:26:10;;;;;;;;;;;;;;;13.82;41.15;99634.16;5382317;26;20350;-79
2024/04/10 00:28:36;;;;;;;;;;;;;;;13.84;40.69;99634.78;5382997;26;19941;-79
2024/04/10 00:31:05;;;;;;;;;;;;;;;13.83;41.53;99632.34;5410152;26;19929;-79
2024/04/10 00:33:30;;;;;;;;;;;;;;;13.74;41.65;99628.22;5351004;26;19936;-79
2024/04/10 00:35:55;;;;;;;;;;;;;;;13.58;42.03;99630.16;5382326;26;19930;-79
2024/04/10 00:38:21;;;;;;;;;;;;;;;13.56;41.89;99634.03;5382228;26;20007;-79
2024/04/10 00:40:56;;;;;;;;;;;;;;;13.57;42.05;99633.00;5351059;26;20359;-79
2024/04/10 00:43:21;;;;;;;;;;;;;;;13.49;41.58;99630.53;5382328;26;19937;-79
2024/04/10 00:45:52;;;;;;;;;;;;;;;13.50;41.44;99632.97;5409787;26;20270;-79
2024/04/10 00:48:18;;;;;;;;;;;;;;;13.51;41.64;99629.31;5382142;26;19936;-79
2024/04/10 00:50:43;;;;;;;;;;;;;;;13.57;41.97;99630.38;5382096;26;19929;-79
2024/04/10 00:53:08;;;;;;;;;;;;;;;13.63;42.22;99622.44;5382010;26;19995;-79
2024/04/10 00:55:34;;;;;;;;;;;;;;;13.71;42.21;99624.13;5350897;26;19929;-79
2024/04/10 00:58:00;;;;;;;;;;;;;;;13.82;41.24;99622.75;5381806;26;20294;-80
2024/04/10 01:00:25;;;;;;;;;;;;;;;13.83;41.46;99621.72;5381711;26;20271;-79
2024/04/10 01:02:50;;;;;;;;;;;;;;;13.87;41.36;99625.63;5409667;26;19937;-79
2024/04/10 01:05:15;;;;;;;;;;;;;;;13.87;41.28;99615.81;5381992;26;19941;-79
2024/04/10 01:07:43;;;;;;;;;;;;;;;13.79;40.99;99621.28;5381152;26;20327;-79
2024/04/10 01:10:08;;;;;;;;;;;;;;;13.58;42.03;99621.38;5381020;26;19999;-79
2024/04/10 01:12:34;;;;;;;;;;;;;;;13.54;42.36;99622.78;5384196;26;19937;-79
2024/04/10 01:15:00;;;;;;;;;;;;;;;13.56;41.47;99621.59;5385249;26;19930;-79
2024/04/10 01:17:25;;;;;;;;;;;;;;;13.56;42.08;99612.81;5385426;26;19941;-79
2024/04/10 01:19:50;;;;;;;;;;;;;;;13.60;41.81;99616.72;5385070;26;20252;-80
2024/04/10 01:22:15;;;;;;;;;;;;;;;13.49;42.65;99620.72;5385382;26;19941;-79
2024/04/10 01:24:41;;;;;;;;;;;;;;;13.53;42.36;99615.84;5413132;26;19929;-79
2024/04/10 01:27:06;;;;;;;;;;;;;;;13.44;42.29;99611.72;5385326;26;19936;-79
2024/04/10 01:29:31;;;;;;;;;;;;;;;13.38;42.61;99615.13;5385039;26;20427;-79
2024/04/10 01:31:57;;;;;;;;;;;;;;;13.31;43.30;99613.25;5384987;26;19936;-79
2024/04/10 01:34:22;;;;;;;;;;;;;;;13.25;43.63;99615.84;5384404;26;19929;-79
2024/04/10 01:36:47;;;;;;;;;;;;;;;13.22;42.17;99614.41;5384909;26;19929;-79
2024/04/10 01:39:13;;;;;;;;;;;;;;;13.12;43.52;99607.78;5412485;26;19936;-79
2024/04/10 01:41:38;;;;;;;;;;;;;;;13.07;43.83;99596.94;5384906;26;19995;-79
2024/04/10 01:44:03;;;;;;;;;;;;;;;13.02;43.53;99600.16;5384489;26;19929;-79
2024/04/10 01:46:29;;;;;;;;;;;;;;;13.00;43.24;99592.41;5412088;26;19999;-79
2024/04/10 01:48:54;;;;;;;;;;;;;;;12.98;42.93;99596.25;5353382;26;19937;-79
2024/04/10 01:51:19;;;;;;;;;;;;;;;12.92;42.83;99597.84;5384484;26;20304;-79
2024/04/10 01:53:44;;;;;;;;;;;;;;;12.95;43.43;99607.22;5412215;26;20021;-79
2024/04/10 01:56:10;;;;;;;;;;;;;;;12.98;43.46;99607.66;5384496;26;19929;-79
2024/04/10 01:58:35;;;;;;;;;;;;;;;12.97;43.11;99597.25;5384518;26;19994;-79
2024/04/10 02:01:01;;;;;;;;;;;;;;;12.98;43.27;99597.06;5412015;26;19929;-79
2024/04/10 02:03:26;;;;;;;;;;;;;;;12.91;42.33;99592.72;5353033;26;20014;-79
2024/04/10 02:05:51;;;;;;;;;;;;;;;12.86;43.41;99603.09;5384447;26;19930;-79
2024/04/10 02:08:16;;;;;;;;;;;;;;;12.82;42.46;99592.03;5384046;26;19929;-80
2024/04/10 02:10:42;;;;;;;;;;;;;;;12.79;43.20;99605.69;5411612;26;20321;-79
2024/04/10 02:13:07;;;;;;;;;;;;;;;12.81;43.02;99613.44;5384283;26;20283;-79
2024/04/10 02:15:32;;;;;;;;;;;;;;;12.84;43.37;99613.06;5412131;26;19930;-79
2024/04/10 02:17:58;;;;;;;;;;;;;;;12.86;43.78;99616.31;5412296;26;19936;-79
2024/04/10 02:20:23;;;;;;;;;;;;;;;12.85;43.65;99615.50;5384389;26;20324;-79
2024/04/10 02:22:48;;;;;;;;;;;;;;;12.87;43.45;99617.97;5383609;26;19937;-79
2024/04/10 02:25:14;;;;;;;;;;;;;;;12.89;43.23;99615.94;5384650;26;19941;-80
2024/04/10 02:27:39;;;;;;;;;;;;;;;12.88;42.96;99612.47;5384482;26;19930;-79
2024/04/10 02:30:06;;;;;;;;;;;;;;;12.82;43.15;99615.91;5384138;26;19930;-79
2024/04/10 02:32:32;;;;;;;;;;;;;;;12.81;42.98;99610.78;5384390;26;19936;-79
2024/04/10 02:34:57;;;;;;;;;;;;;;;12.84;43.50;99610.41;5353306;26;19929;-79
2024/04/10 02:37:23;;;;;;;;;;;;;;;12.83;43.36;99614.06;5384421;26;19938;-79
2024/04/10 02:39:49;;;;;;;;;;;;;;;12.78;43.21;99608.50;5353112;26;20252;-79
2024/04/10 02:42:14;;;;;;;;;;;;;;;12.78;42.37;99613.81;5384159;26;19976;-80
2024/04/10 02:44:39;;;;;;;;;;;;;;;12.77;42.88;99620.13;5383786;26;19936;-79
2024/04/10 02:47:04;;;;;;;;;;;;;;;12.75;42.67;99622.97;5353241;26;19930;-79
2024/04/10 02:49:30;;;;;;;;;;;;;;;12.71;42.85;99619.88;5384009;26;19945;-80
2024/04/10 02:51:55;;;;;;;;;;;;;;;12.66;44.38;99616.16;5384134;26;19998;-80
2024/04/10 02:54:20;;;;;;;;;;;;;;;12.66;42.91;99621.44;5411958;26;20263;-79
2024/04/10 02:56:45;;;;;;;;;;;;;;;12.65;42.56;99620.63;5384361;26;19998;-80
2024/04/10 02:59:11;;;;;;;;;;;;;;;12.46;44.49;99626.53;5383580;26;20363;-79
2024/04/10 03:01:39;;;;;;;;;;;;;;;12.34;43.44;99620.91;5383586;26;19930;-79
2024/04/10 03:04:05;;;;;;;;;;;;;;;12.28;43.46;99626.13;5411156;26;20267;-79
2024/04/10 03:06:30;;;;;;;;;;;;;;;12.34;44.38;99626.19;5411514;26;19936;-79
2024/04/10 03:08:55;;;;;;;;;;;;;;;12.37;44.71;99628.47;5383633;26;19941;-79
2024/04/10 03:11:20;;;;;;;;;;;;;;;12.31;45.34;99634.50;5383510;26;19929;-79
2024/04/10 03:13:46;;;;;;;;;;;;;;;12.15;44.42;99633.91;5382812;26;19930;-79
2024/04/10 03:16:11;;;;;;;;;;;;;;;12.05;44.51;99642.16;5383621;26;19942;-79
2024/04/10 03:18:36;;;;;;;;;;;;;;;11.99;45.24;99653.47;5383515;26;19929;-79
2024/04/10 03:21:02;;;;;;;;;;;;;;;11.91;45.54;99650.94;5383199;26;19936;-79
2024/04/10 03:23:27;;;;;;;;;;;;;;;11.96;44.78;99651.19;5383686;26;20247;-79
2024/04/10 03:26:19;;;;;;;;;;;;;;;12.09;44.77;99659.31;5383317;26;20404;-79
2024/04/10 03:28:44;;;;;;;;;;;;;;;12.27;44.32;99657.06;5350391;26;19929;-80
2024/04/10 03:31:10;;;;;;;;;;;;;;;12.32;44.25;99667.09;5383244;26;19936;-79
2024/04/10 03:33:35;;;;;;;;;;;;;;;12.36;44.66;99671.03;5351945;26;20270;-79
2024/04/10 03:36:01;;;;;;;;;;;;;;;12.43;43.94;99673.75;5409232;26;19930;-79
2024/04/10 03:38:26;;;;;;;;;;;;;;;12.45;44.99;99674.38;5383003;26;20275;-79
2024/04/10 03:40:51;;;;;;;;;;;;;;;12.48;44.36;99674.81;5383024;26;19941;-79
2024/04/10 03:43:17;;;;;;;;;;;;;;;12.53;43.85;99674.25;5351987;26;19998;-79
2024/04/10 03:45:42;;;;;;;;;;;;;;;12.55;43.84;99680.19;5410794;26;19929;-79
2024/04/10 03:48:08;;;;;;;;;;;;;;;12.57;44.44;99683.47;5382904;26;19937;-79
2024/04/10 03:50:33;;;;;;;;;;;;;;;12.62;43.89;99679.25;5410666;26;19929;-80
2024/04/10 03:52:58;;;;;;;;;;;;;;;12.69;43.13;99671.41;5351832;26;20311;-79
2024/04/10 03:55:24;;;;;;;;;;;;;;;12.67;44.08;99679.53;5382655;26;19936;-79
2024/04/10 03:57:49;;;;;;;;;;;;;;;12.62;44.71;99673.97;5382835;26;19930;-79
2024/04/10 04:00:15;;;;;;;;;;;;;;;12.57;44.39;99671.03;5382666;26;19936;-79
2024/04/10 04:02:40;;;;;;;;;;;;;;;12.53;43.57;99683.03;5351419;26;19929;-79
2024/04/10 04:05:05;;;;;;;;;;;;;;;12.46;43.89;99668.88;5382220;26;19930;-79
2024/04/10 04:07:31;;;;;;;;;;;;;;;12.41;44.56;99673.94;5382121;26;19930;-79
2024/04/10 04:09:56;;;;;;;;;;;;;;;12.36;45.46;99677.13;5382102;26;20256;-79
2024/04/10 04:12:21;;;;;;;;;;;;;;;12.31;44.44;99676.88;5410005;26;19930;-79
2024/04/10 04:14:47;;;;;;;;;;;;;;;12.23;44.36;99676.16;5382150;26;19929;-79
2024/04/10 04:17:12;;;;;;;;;;;;;;;12.21;44.51;99680.81;5382347;26;20261;-79
2024/04/10 04:19:37;;;;;;;;;;;;;;;12.25;43.94;99690.03;5382860;26;19929;-79
2024/04/10 04:22:03;;;;;;;;;;;;;;;12.27;45.26;99686.19;5382596;26;20362;-81
2024/04/10 04:24:28;;;;;;;;;;;;;;;12.29;44.40;99681.53;5382298;26;19929;-79
2024/04/10 04:26:53;;;;;;;;;;;;;;;12.23;44.83;99684.09;5351475;26;19984;-79
2024/04/10 04:29:19;;;;;;;;;;;;;;;12.17;44.92;99696.25;5382047;26;20252;-81
2024/04/10 04:31:44;;;;;;;;;;;;;;;12.13;44.97;99694.16;5382164;26;20007;-80
2024/04/10 04:34:16;;;;;;;;;;;;;;;12.12;45.43;99695.97;5382386;26;20271;-79
2024/04/10 04:36:41;;;;;;;;;;;;;;;12.19;44.91;99690.78;5382424;26;19961;-80
2024/04/10 04:39:13;;;;;;;;;;;;;;;12.19;45.24;99693.41;5351286;26;19934;-80
2024/04/10 04:41:38;;;;;;;;;;;;;;;12.22;44.35;99698.34;5382097;26;19937;-80
2024/04/10 04:44:03;;;;;;;;;;;;;;;12.18;43.92;99697.88;5382189;26;19933;-80
2024/04/10 04:46:29;;;;;;;;;;;;;;;12.16;44.54;99702.56;5383556;26;19941;-80
2024/04/10 04:48:54;;;;;;;;;;;;;;;12.19;44.48;99698.72;5385403;26;19937;-81
2024/04/10 04:51:20;;;;;;;;;;;;;;;12.13;45.81;99688.88;5385192;26;19958;-80
2024/04/10 04:53:45;;;;;;;;;;;;;;;12.17;44.38;99696.25;5384987;26;19930;-80
2024/04/10 04:56:10;;;;;;;;;;;;;;;12.18;45.15;99695.25;5353846;26;19936;-80
2024/04/10 04:58:36;;;;;;;;;;;;;;;12.25;44.83;99698.78;5385033;26;19937;-80
2024/04/10 05:01:01;;;;;;;;;;;;;;;12.23;44.86;99700.00;5353698;26;19933;-80
2024/04/10 05:06:10;;;;;;;;;;;;;;;12.29;44.85;99707.19;5385296;26;19999;-79
2024/04/10 05:08:35;;;;;;;;;;;;;;;12.38;44.89;99700.78;5384884;26;19938;-80
2024/04/10 05:11:06;;;;;;;;;;;;;;;12.41;44.78;99705.69;5419150;26;20384;-80
2024/04/10 05:13:32;;;;;;;;;;;;;;;12.52;44.03;99713.16;5412000;26;19929;-80
2024/04/10 05:15:57;;;;;;;;;;;;;;;12.63;44.09;99714.50;5420283;26;19936;-80
2024/04/10 05:18:22;;;;;;;;;;;;;;;12.74;43.92;99711.41;5420347;26;19933;-80
2024/04/10 05:20:48;;;;;;;;;;;;;;;12.85;44.71;99718.03;5388975;26;19998;-80
2024/04/10 05:23:13;;;;;;;;;;;;;;;12.94;44.18;99712.41;5420218;26;19929;-80
2024/04/10 05:25:38;;;;;;;;;;;;;;;13.04;43.66;99720.88;5422573;26;19928;-80
2024/04/10 05:28:04;;;;;;;;;;;;;;;13.17;43.77;99714.91;5420438;26;19929;-80
2024/04/10 05:30:29;;;;;;;;;;;;;;;13.29;43.04;99709.91;5420276;26;20377;-80
2024/04/10 05:32:54;;;;;;;;;;;;;;;13.38;44.07;99706.13;5388642;26;19929;-80
2024/04/10 05:35:20;;;;;;;;;;;;;;;13.47;43.31;99715.59;5441061;26;19938;-80
2024/04/10 05:37:45;;;;;;;;;;;;;;;13.55;43.70;99714.63;5456302;26;19928;-79
2024/04/10 05:40:14;;;;;;;;;;;;;;;13.64;43.94;99708.16;5423302;26;19940;-79
2024/04/10 05:42:40;;;;;;;;;;;;;;;13.71;43.49;99708.19;5424024;26;19928;-79
2024/04/10 05:45:07;;;;;;;;;;;;;;;13.82;43.83;99711.13;5437016;26;19936;-78
2024/04/10 05:47:33;;;;;;;;;;;;;;;13.94;43.44;99714.88;5437112;26;20327;-79
2024/04/10 05:49:58;;;;;;;;;;;;;;;14.04;43.61;99719.00;5419879;26;19936;-80
2024/04/10 05:52:23;;;;;;;;;;;;;;;14.10;44.09;99720.88;5420065;26;19929;-80
2024/04/10 05:54:49;;;;;;;;;;;;;;;14.18;43.75;99724.22;5419788;26;20066;-80
2024/04/10 05:57:15;;;;;;;;;;;;;;;14.27;43.21;99725.69;5419355;26;20266;-80
2024/04/10 05:59:40;;;;;;;;;;;;;;;14.36;44.22;99722.88;5387980;26;20254;-80
2024/04/10 06:02:05;;;;;;;;;;;;;;;14.39;44.12;99725.97;5419745;26;20339;-80
2024/04/10 06:04:30;;;;;;;;;;;;;;;14.41;44.14;99737.22;5391753;26;19928;-80
2024/04/10 06:06:56;;;;;;;;;;;;;;;14.44;43.84;99728.06;5455119;26;20428;-78
2024/04/10 06:09:21;;;;;;;;;;;;;;;14.57;43.97;99730.75;5455290;26;19929;-80
2024/04/10 06:11:46;;;;;;;;;;;;;;;14.65;44.38;99733.22;5454961;26;19936;-80
2024/04/10 06:14:11;;;;;;;;;;;;;;;14.76;45.17;99730.00;5423888;26;19936;-79
2024/04/10 06:16:37;;;;;;;;;;;;;;;14.92;43.93;99737.63;5453819;26;19928;-78
2024/04/10 06:19:03;;;;;;;;;;;;;;;15.07;43.69;99750.75;5454973;26;19935;-80
2024/04/10 06:21:28;;;;;;;;;;;;;;;15.16;43.36;99746.88;5387934;26;20369;-77
2024/04/10 06:23:53;;;;;;;;;;;;;;;15.20;43.82;99737.47;5387652;26;20378;-80
2024/04/10 06:26:19;;;;;;;;;;;;;;;15.31;44.59;99749.34;5419419;26;19929;-79
2024/04/10 06:28:45;;;;;;;;;;;;;;;15.43;44.90;99750.38;5419630;26;19960;-79
2024/04/10 06:31:12;;;;;;;;;;;;;;;15.54;43.19;99747.09;5418934;26;19937;-79
2024/04/10 06:33:38;;;;;;;;;;;;;;;15.58;43.88;99750.19;5418592;26;19944;-80
2024/04/10 06:36:03;;;;;;;;;;;;;;;15.70;42.47;99750.44;5419194;26;19936;-79
2024/04/10 06:38:29;;;;;;;;;;;;;;;15.84;42.49;99760.03;5418664;26;19941;-80
2024/04/10 06:40:55;;;;;;;;;;;;;;;15.94;42.04;99751.63;5446397;26;19928;-79
2024/04/10 06:43:21;;;;;;;;;;;;;;;16.04;41.74;99746.69;5455263;26;19936;-79
2024/04/10 06:46:07;;;;;;;;;;;;;;;16.08;42.27;99750.56;5454865;26;19928;-79
2024/04/10 06:48:33;;;;;;;;;;;;;;;16.08;42.44;99754.06;5454953;26;20465;-79
2024/04/10 06:51:02;;;;;;;;;;;;;;;16.15;41.46;99752.19;5454982;26;19932;-78
2024/04/10 06:53:27;;;;;;;;;;;;;;;16.24;42.12;99750.13;5448008;26;19936;-78
2024/04/10 06:55:57;;;;;;;;;;;;;;;16.28;41.69;99754.00;5394170;26;19932;-80
2024/04/10 06:58:26;;;;;;;;;;;;;;;16.39;42.01;99758.72;5418469;26;20356;-80
2024/04/10 07:00:58;;;;;;;;;;;;;;;16.46;41.40;99761.34;5420145;26;19952;-80
2024/04/10 07:03:27;;;;;;;;;;;;;;;16.47;41.31;99747.81;5454571;26;19936;-78
2024/04/10 07:06:01;;;;;;;;;;;;;;;16.59;40.97;99755.97;5421679;26;20665;-80
2024/04/10 07:08:26;;;;;;;;;;;;;;;16.75;41.10;99746.69;5453913;26;20372;-80
2024/04/10 07:10:53;;;;;;;;;;;;;;;16.93;39.84;99741.47;5403671;26;19928;-78
2024/04/10 07:13:18;;;;;;;;;;;;;;;17.05;40.45;99744.25;5399087;26;20006;-78
2024/04/10 07:15:43;;;;;;;;;;;;;;;17.22;40.63;99741.91;5395031;26;19936;-80
2024/04/10 07:18:09;;;;;;;;;;;;;;;17.34;39.88;99749.00;5426972;26;20361;-80
2024/04/10 07:20:34;;;;;;;;;;;;;;;17.41;39.78;99738.28;5418059;26;19929;-79
2024/04/10 07:22:59;;;;;;;;;;;;;;;17.52;40.34;99742.91;5379749;26;19938;-80
2024/04/10 07:25:25;;;;;;;;;;;;;;;17.59;39.30;99745.53;5412454;26;19928;-79
2024/04/10 07:27:50;;;;;;;;;;;;;;;17.70;39.29;99739.50;5416547;26;20265;-80
2024/04/10 07:30:15;;;;;;;;;;;;;;;17.80;38.57;99745.16;5401674;26;19928;-79
2024/04/10 07:32:40;;;;;;;;;;;;;;;17.84;38.25;99742.88;5386622;26;19929;-79
2024/04/10 07:35:06;;;;;;;;;;;;;;;17.84;38.99;99741.03;5421912;26;19985;-78
2024/04/10 07:37:31;;;;;;;;;;;;;;;17.92;39.13;99737.25;5393490;26;19944;-80
2024/04/10 07:39:57;;;;;;;;;;;;;;;18.01;38.77;99734.09;5447938;26;19928;-79
2024/04/10 07:42:22;;;;;;;;;;;;;;;18.03;38.73;99731.19;5389871;26;19929;-81
2024/04/10 07:44:51;;;;;;;;;;;;;;;18.12;38.87;99743.22;5401285;26;19937;-79
2024/04/10 07:47:16;;;;;;;;;;;;;;;18.19;38.69;99741.28;5398027;26;19929;-79
2024/04/10 07:49:42;;;;;;;;;;;;;;;18.27;38.59;99741.00;5402269;26;19936;-79
2024/04/10 07:52:07;;;;;;;;;;;;;;;18.38;38.85;99728.72;5384674;26;19929;-80
2024/04/10 07:54:33;;;;;;;;;;;;;;;18.49;38.37;99727.16;5417859;26;20391;-78
2024/04/10 07:56:58;;;;;;;;;;;;;;;18.61;38.67;99722.72;5417777;26;19973;-78
2024/04/10 07:59:23;;;;;;;;;;;;;;;18.76;38.28;99717.00;5386201;26;20374;-80
2024/04/10 08:01:48;;;;;;;;;;;;;;;18.88;38.32;99710.63;5406749;26;19933;-79
2024/04/10 08:04:14;;;;;;;;;;;;;;;19.04;37.83;99717.19;5387591;26;19935;-80
2024/04/10 08:06:39;;;;;;;;;;;;;;;19.17;37.48;99716.19;5418798;26;20278;-80
2024/04/10 08:09:05;;;;;;;;;;;;;;;19.15;37.33;99716.41;5421805;26;19997;-80
2024/04/10 08:11:30;;;;;;;;;;;;;;;19.25;37.52;99713.16;5405262;26;19937;-78
2024/04/10 08:13:55;;;;;;;;;;;;;;;19.40;37.75;99718.91;5416190;26;20259;-80
2024/04/10 08:16:21;;;;;;;;;;;;;;;19.60;36.87;99716.75;5403717;26;19929;-79
2024/04/10 08:18:46;;;;;;;;;;;;;;;19.75;36.68;99720.84;5399539;26;20315;-79
2024/04/10 08:21:13;;;;;;;;;;;;;;;19.83;36.09;99723.16;5384351;26;19928;-80
2024/04/10 08:23:39;;;;;;;;;;;;;;;19.95;36.03;99723.97;5376954;26;20383;-80
2024/04/10 08:26:11;;;;;;;;;;;;;;;20.06;36.20;99715.09;5387143;26;19936;-79
2024/04/10 08:28:48;;;;;;;;;;;;;;;20.19;36.08;99717.53;5365248;26;20039;-80
2024/04/10 08:31:14;;;;;;;;;;;;;;;20.33;35.80;99712.72;5409358;26;19944;-79
2024/04/10 08:33:40;;;;;;;;;;;;;;;20.37;34.83;99718.44;5406244;26;19929;-77
2024/04/10 08:36:06;;;;;;;;;;;;;;;20.48;35.17;99713.06;5384253;26;19935;-80
2024/04/10 08:38:32;;;;;;;;;;;;;;;20.66;35.39;99712.06;5417464;26;19929;-79
2024/04/10 08:40:58;;;;;;;;;;;;;;;20.81;34.61;99717.75;5413868;26;20377;-79
2024/04/10 08:43:25;;;;;;;;;;;;;;;20.94;34.97;99719.31;5418648;26;19929;-78
2024/04/10 08:45:51;;;;;;;;;;;;;;;21.11;34.42;99711.28;5387895;26;19968;-80
2024/04/10 08:48:17;;;;;;;;;;;;;;;21.20;34.13;99707.97;5402328;26;19979;-82
2024/04/10 08:50:42;;;;;;;;;;;;;;;21.28;34.34;99697.91;5391499;26;19940;-79
2024/04/10 08:53:09;;;;;;;;;;;;;;;21.49;33.92;99697.16;5411618;26;19936;-80
2024/04/10 08:55:34;;;;;;;;;;;;;;;21.71;33.99;99697.25;5405957;26;19998;-79
2024/04/10 08:58:00;;;;;;;;;;;;;;;22.00;33.23;99689.84;5410244;26;19941;-79
2024/04/10 09:00:25;;;;;;;;;;;;;;;22.14;32.48;99691.94;5376163;26;19980;-79
2024/04/10 09:02:53;;;;;;;;;;;;;;;22.28;32.76;99700.44;5403552;26;19940;-77
2024/04/10 09:05:25;;;;;;;;;;;;;;;22.42;31.65;99695.53;5384930;26;19936;-79
2024/04/10 09:08:00;;;;;;;;;;;;;;;22.57;31.92;99695.69;5405127;26;19929;-79
2024/04/10 09:10:25;;;;;;;;;;;;;;;22.74;31.33;99693.72;5396282;26;19929;-80
2024/04/10 09:12:51;;;;;;;;;;;;;;;23.00;31.04;99694.00;5402571;26;19936;-78
2024/04/10 09:15:19;;;;;;;;;;;;;;;23.22;32.19;99692.06;5393944;26;20027;-79
2024/04/10 09:17:44;;;;;;;;;;;;;;;23.31;30.92;99690.50;5403284;26;19929;-80
2024/04/10 09:20:11;;;;;;;;;;;;;;;23.45;31.32;99694.41;5413930;26;19929;-79
2024/04/10 09:22:36;;;;;;;;;;;;;;;23.57;30.13;99694.22;5414040;26;19929;-80
2024/04/10 09:25:11;;;;;;;;;;;;;;;23.73;28.39;99692.44;5380764;26;19957;-79
2024/04/10 09:27:37;;;;;;;;;;;;;;;23.91;29.13;99692.03;5350078;26;19930;-79
2024/04/10 09:30:02;;;;;;;;;;;;;;;24.04;28.98;99688.88;5381277;26;19941;-79
2024/04/10 09:32:27;;;;;;;;;;;;;;;24.16;27.50;99685.94;5384208;26;19936;-79
2024/04/10 09:34:54;;;;;;;;;;;;;;;24.21;28.03;99693.25;5411024;26;19930;-80
2024/04/10 09:37:20;;;;;;;;;;;;;;;24.41;29.58;99696.06;5397107;26;19997;-80
2024/04/10 09:39:45;;;;;;;;;;;;;;;24.62;28.08;99695.06;5386917;26;19945;-79
2024/04/10 09:42:16;;;;;;;;;;;;;;;24.80;27.67;99687.53;5387877;26;19937;-79
2024/04/10 09:44:42;;;;;;;;;;;;;;;24.95;27.08;99682.97;5384335;26;19935;-79
2024/04/10 09:47:08;;;;;;;;;;;;;;;25.15;28.72;99684.09;5387846;26;19933;-78
2024/04/10 09:49:48;;;;;;;;;;;;;;;25.31;27.40;99683.84;5415978;26;19933;-79
2024/04/10 09:52:14;;;;;;;;;;;;;;;25.55;26.84;99677.88;5384086;26;20391;-78
2024/04/10 09:54:40;;;;;;;;;;;;;;;25.69;27.31;99680.84;5393764;26;19929;-78
2024/04/10 09:57:08;;;;;;;;;;;;;;;25.87;27.19;99680.25;5384063;26;19938;-80
2024/04/10 09:59:34;;;;;;;;;;;;;;;26.08;25.19;99679.13;5394255;26;19944;-79
2024/04/10 10:02:09;;;;;;;;;;;;;;;26.03;27.25;99668.31;5426065;26;20003;-78
2024/04/10 10:04:38;;;;;;;;;;;;;;;26.12;26.01;99671.25;5441820;26;20358;-78
2024/04/10 10:07:03;;;;;;;;;;;;;;;26.31;26.42;99669.56;5437490;26;19943;-78
2024/04/10 10:09:28;;;;;;;;;;;;;;;26.31;24.61;99664.13;5448325;26;20548;-78
2024/04/10 10:11:57;;;;;;;;;;;;;;;26.55;25.87;99661.59;5428121;26;20001;-78
2024/04/10 10:14:26;;;;;;;;;;;;;;;26.78;25.95;99665.53;5435536;26;19929;-79
2024/04/10 10:16:51;;;;;;;;;;;;;;;26.78;26.35;99658.22;5415218;26;20277;-78
2024/04/10 10:19:24;;;;;;;;;;;;;;;26.95;24.31;99657.00;5417162;26;19928;-80
2024/04/10 10:21:58;;;;;;;;;;;;;;;26.99;25.32;99652.69;5415682;26;19940;-79
2024/04/10 10:24:23;;;;;;;;;;;;;;;27.13;23.04;99661.78;5432424;26;19928;-79
2024/04/10 10:26:56;;;;;;;;;;;;;;;27.12;23.50;99668.28;5419169;26;19936;-79
2024/04/10 10:29:22;;;;;;;;;;;;;;;27.18;26.12;99664.44;5421617;26;19958;-80
2024/04/10 10:31:47;;;;;;;;;;;;;;;27.31;25.09;99657.53;5416741;26;19998;-80
2024/04/10 10:34:16;;;;;;;;;;;;;;;27.51;24.17;99657.38;5415501;26;19937;-77
2024/04/10 10:36:41;;;;;;;;;;;;;;;27.60;22.98;99652.13;5419013;26;19953;-80
2024/04/10 10:39:13;;;;;;;;;;;;;;;27.75;22.43;99647.38;5416856;26;20358;-80
2024/04/10 10:41:39;;;;;;;;;;;;;;;27.74;23.98;99653.09;5416622;26;19929;-80
2024/04/10 10:44:04;;;;;;;;;;;;;;;27.90;23.63;99645.59;5414282;26;19929;-80
2024/04/10 10:46:29;;;;;;;;;;;;;;;28.03;23.69;99644.88;5418345;26;19936;-79
2024/04/10 10:48:55;;;;;;;;;;;;;;;28.14;22.73;99647.19;5414986;26;20362;-80
2024/04/10 10:51:20;;;;;;;;;;;;;;;28.27;23.01;99639.47;5428706;26;19928;-79
2024/04/10 10:53:49;;;;;;;;;;;;;;;28.45;22.47;99638.66;5434606;26;19929;-79
2024/04/10 10:56:21;;;;;;;;;;;;;;;28.20;22.54;99637.06;5413528;26;19997;-79
2024/04/10 10:58:47;;;;;;;;;;;;;;;28.29;24.28;99632.66;5413882;26;19933;-80
2024/04/10 11:01:12;;;;;;;;;;;;;;;28.31;24.19;99627.72;5411075;26;20366;-80
2024/04/10 11:03:38;;;;;;;;;;;;;;;28.51;23.81;99631.25;5418374;26;19929;-80
2024/04/10 11:06:07;;;;;;;;;;;;;;;28.74;22.41;99635.78;5423330;26;19929;-81
2024/04/10 11:08:32;;;;;;;;;;;;;;;28.80;22.26;99638.13;5395582;26;19936;-80
2024/04/10 11:10:58;;;;;;;;;;;;;;;28.91;23.33;99644.25;5453315;26;19928;-80
2024/04/10 11:13:23;;;;;;;;;;;;;;;29.05;22.46;99633.44;5432386;26;19997;-80
2024/04/10 11:15:49;;;;;;;;;;;;;;;29.29;20.63;99625.94;5418288;26;19929;-82
2024/04/10 11:18:18;;;;;;;;;;;;;;;29.30;23.35;99630.28;5418491;26;19929;-80
2024/04/10 11:20:44;;;;;;;;;;;;;;;29.30;20.84;99626.75;5416800;26;19929;-80
2024/04/10 11:23:09;;;;;;;;;;;;;;;29.36;20.50;99631.00;5436676;26;19940;-80
2024/04/10 11:25:35;;;;;;;;;;;;;;;29.29;20.54;99631.38;5454090;26;19997;-82
2024/04/10 11:28:01;;;;;;;;;;;;;;;29.54;19.66;99623.88;5445996;26;19965;-80
2024/04/10 11:30:26;;;;;;;;;;;;;;;29.58;21.51;99624.91;5444226;26;19936;-79
2024/04/10 11:32:52;;;;;;;;;;;;;;;29.71;20.54;99615.94;5435055;26;19936;-79
2024/04/10 11:35:18;;;;;;;;;;;;;;;29.78;20.39;99623.72;5454327;26;19944;-78
2024/04/10 11:37:44;;;;;;;;;;;;;;;29.79;21.04;99619.88;5453959;26;19929;-80
2024/04/10 11:40:12;;;;;;;;;;;;;;;29.96;20.29;99610.00;5443008;26;19929;-79
2024/04/10 11:42:40;;;;;;;;;;;;;;;30.08;19.35;99614.16;5448380;26;19939;-79
2024/04/10 11:45:09;;;;;;;;;;;;;;;30.04;18.96;99611.22;5451916;26;19928;-80
2024/04/10 11:47:35;;;;;;;;;;;;;;;29.96;20.94;99615.44;5452186;26;19929;-80
2024/04/10 11:50:01;;;;;;;;;;;;;;;29.91;20.42;99609.28;5418977;26;19930;-79
2024/04/10 11:52:26;;;;;;;;;;;;;;;29.79;21.41;99607.09;5414896;26;20006;-78
2024/04/10 11:54:51;;;;;;;;;;;;;;;29.59;21.01;99613.72;5440219;26;19944;-78
2024/04/10 11:57:17;;;;;;;;;;;;;;;29.63;20.54;99603.03;5452011;26;19940;-80
2024/04/10 11:59:45;;;;;;;;;;;;;;;29.90;19.25;99599.50;5453280;26;20374;-80
2024/04/10 12:02:11;;;;;;;;;;;;;;;29.58;19.80;99518.78;5442843;26;19998;-79
2024/04/10 12:04:36;;;;;;;;;;;;;;;30.17;19.20;99594.06;5415672;26;19998;-79
2024/04/10 12:07:02;;;;;;;;;;;;;;;30.22;19.36;99587.69;5419530;26;19952;-79
2024/04/10 12:09:28;;;;;;;;;;;;;;;30.27;20.75;99590.28;5429120;26;20761;-79
2024/04/10 12:11:53;;;;;;;;;;;;;;;30.28;20.11;99589.97;5413844;26;19936;-79
2024/04/10 12:14:18;;;;;;;;;;;;;;;30.29;19.18;99582.63;5410597;26;20038;-79
2024/04/10 12:18:40;;;;;;;;;;;;;;;29.96;19.87;99574.59;5544832;25;20340;-78
2024/04/10 12:21:08;;;;;;;;;;;;;;;29.98;18.80;99583.28;5545487;25;19939;-79
2024/04/10 12:23:33;;;;;;;;;;;;;;;30.06;19.45;99583.69;5534217;25;19934;-79
2024/04/10 12:26:00;;;;;;;;;;;;;;;30.10;19.48;99580.03;5512333;25;19940;-79
2024/04/10 12:28:25;;;;;;;;;;;;;;;29.87;20.24;99573.72;5544006;25;19935;-80
2024/04/10 12:30:52;;;;;;;;;;;;;;;29.53;19.34;99581.47;5537192;25;19935;-79
2024/04/10 12:33:18;;;;;;;;;;;;;;;29.57;19.81;99575.13;5511482;25;19939;-80
2024/04/10 12:38:27;;;;;;;;;;;;;;;29.68;19.49;99579.25;5518997;25;20425;-78
2024/04/10 12:40:58;;;;;;;;;;;;;;;29.70;19.24;99577.03;5544114;25;19928;-78
2024/04/10 12:43:24;;;;;;;;;;;;;;;29.69;17.02;99575.41;5544062;25;19959;-79
2024/04/10 12:45:49;;;;;;;;;;;;;;;29.75;17.86;99570.69;5543275;25;19927;-79
2024/04/10 12:48:14;;;;;;;;;;;;;;;29.89;18.30;99570.69;5532132;25;20389;-80
2024/04/10 12:50:39;;;;;;;;;;;;;;;30.07;17.64;99571.69;5527804;25;19928;-80